F/V Adeline Stephen — FGUF — position and weather

sailwx.info

Track history (hours):
 
Tides and Currents Weather Stations Pressure Air Temp Water Temp Dewpoint Dewpoint Depression Visibility Wind Speed Wind Dir Waves Ship Positions

F/V Adeline Stephen

Last reported at 2014-Oct-30 13:33 UTC. Time now 2014-Oct-30 15:11 UTC.
Position N 47°11' W 003°02'.

Length 18 m.

Type: Fishing. MMSI: 228929000.

Date/timePositionNaut miles runAvg speedWind from/ knotsBaromVisibWave heightAir tempDewpointWater temp
2014-Oct-30 13:33N 47°11' W 003°02'13 3.1
2014-Oct-30 09:30N 46°60' W 002°52'21 1.9
2014-Oct-29 22:33N 47°20' W 003°01'8 8.1
2014-Oct-29 21:34N 47°26' W 003°08'8 8.3
2014-Oct-29 20:34N 47°33' W 003°16'8 8.3
2014-Oct-29 19:33N 47°40' W 003°22'4 3.8
2014-Oct-29 18:33N 47°44' W 003°22'0 0.1
2014-Oct-29 17:33N 47°44' W 003°22'0 0.0
2014-Oct-29 16:33N 47°44' W 003°22'3 3.2
2014-Oct-29 15:33N 47°40' W 003°22'52 9.5
2014-Oct-29 10:08N 46°59' W 002°37'2 3.5
2014-Oct-29 09:32N 47°00' W 002°34'3 1.6
2014-Oct-29 07:18N 46°58' W 002°38'2 3.1
2014-Oct-29 06:33N 46°60' W 002°41'2 2.5
2014-Oct-29 05:33N 47°00' W 002°44'4 3.6
2014-Oct-29 04:33N 46°60' W 002°49'3 3.4
2014-Oct-29 03:33N 47°02' W 002°53'2 2.0
2014-Oct-29 02:20N 46°60' W 002°52'0 0.3
2014-Oct-29 01:33N 47°00' W 002°52'3 3.0
2014-Oct-29 00:33N 47°03' W 002°53'3 2.9
2014-Oct-28 23:31N 47°02' W 002°58'5 3.7
2014-Oct-28 22:09N 46°57' W 002°57'3 3.0
2014-Oct-28 21:16N 46°60' W 002°56'6 3.5
2014-Oct-28 19:28N 47°00' W 002°47'14 0.6
2014-Oct-27 17:33N 47°01' W 003°08'8 2.1
2014-Oct-27 13:30N 46°57' W 002°57'3 3.1
2014-Oct-27 12:33N 47°00' W 002°56'3 3.3
2014-Oct-27 11:33N 47°03' W 002°53'3 2.9
2014-Oct-27 10:29N 47°04' W 002°50'3 3.2
2014-Oct-27 09:33N 47°07' W 002°50'4 3.6
2014-Oct-27 08:32N 47°11' W 002°49'3 3.3
2014-Oct-27 07:33N 47°14' W 002°51'5 5.2
2014-Oct-27 06:33N 47°17' W 002°57'10 8.1
2014-Oct-27 05:22N 47°25' W 003°06'7 9.0
2014-Oct-27 04:33N 47°31' W 003°12'9 8.8
2014-Oct-27 03:33N 47°38' W 003°21'6 6.3
2014-Oct-27 02:33N 47°44' W 003°22'0 0.0
2014-Oct-27 01:33N 47°44' W 003°22'0 0.0
2014-Oct-27 00:33N 47°44' W 003°22'5 4.6
2014-Oct-26 23:33N 47°39' W 003°22'9 8.8
2014-Oct-26 22:33N 47°32' W 003°14'  
2014-Oct-24 11:34N 47°31' W 003°12'8 8.1
2014-Oct-24 10:33N 47°38' W 003°19'6 6.3
2014-Oct-24 09:33N 47°44' W 003°22'0 0.1
2014-Oct-24 08:33N 47°44' W 003°22'0 0.0
2014-Oct-24 07:33N 47°44' W 003°22'  
2014-Oct-20 21:08N 47°44' W 003°22'0 0.0
2014-Oct-20 20:33N 47°44' W 003°22'2 2.3
2014-Oct-20 19:33N 47°42' W 003°23'18 9.2
2014-Oct-20 17:33N 47°39' W 003°50'9 8.8
2014-Oct-20 16:33N 47°39' W 004°03'  
Track history (hours):
 
Tides and Currents Weather Stations Pressure Air Temp Water Temp Dewpoint Dewpoint Depression Visibility Wind Speed Wind Dir Waves Ship Positions

F/V Adeline Stephen

Last reported at 2014-Oct-30 13:33 UTC. Time now 2014-Oct-30 15:11 UTC.
Position N 47°11' W 003°02'.

Length 18 m.

Type: Fishing. MMSI: 228929000.

Date/timePositionNaut miles runAvg speedWind from/ knotsBaromVisibWave heightAir tempDewpointWater temp
2014-Oct-30 13:33N 47°11' W 003°02'13 3.1
2014-Oct-30 09:30N 46°60' W 002°52'21 1.9
2014-Oct-29 22:33N 47°20' W 003°01'8 8.1
2014-Oct-29 21:34N 47°26' W 003°08'8 8.3
2014-Oct-29 20:34N 47°33' W 003°16'8 8.3
2014-Oct-29 19:33N 47°40' W 003°22'4 3.8
2014-Oct-29 18:33N 47°44' W 003°22'0 0.1
2014-Oct-29 17:33N 47°44' W 003°22'0 0.0
2014-Oct-29 16:33N 47°44' W 003°22'3 3.2
2014-Oct-29 15:33N 47°40' W 003°22'52 9.5
2014-Oct-29 10:08N 46°59' W 002°37'2 3.5
2014-Oct-29 09:32N 47°00' W 002°34'3 1.6
2014-Oct-29 07:18N 46°58' W 002°38'2 3.1
2014-Oct-29 06:33N 46°60' W 002°41'2 2.5
2014-Oct-29 05:33N 47°00' W 002°44'4 3.6
2014-Oct-29 04:33N 46°60' W 002°49'3 3.4
2014-Oct-29 03:33N 47°02' W 002°53'2 2.0
2014-Oct-29 02:20N 46°60' W 002°52'0 0.3
2014-Oct-29 01:33N 47°00' W 002°52'3 3.0
2014-Oct-29 00:33N 47°03' W 002°53'3 2.9
2014-Oct-28 23:31N 47°02' W 002°58'5 3.7
2014-Oct-28 22:09N 46°57' W 002°57'3 3.0
2014-Oct-28 21:16N 46°60' W 002°56'6 3.5
2014-Oct-28 19:28N 47°00' W 002°47'14 0.6
2014-Oct-27 17:33N 47°01' W 003°08'8 2.1
2014-Oct-27 13:30N 46°57' W 002°57'3 3.1
2014-Oct-27 12:33N 47°00' W 002°56'3 3.3
2014-Oct-27 11:33N 47°03' W 002°53'3 2.9
2014-Oct-27 10:29N 47°04' W 002°50'3 3.2
2014-Oct-27 09:33N 47°07' W 002°50'4 3.6
2014-Oct-27 08:32N 47°11' W 002°49'3 3.3
2014-Oct-27 07:33N 47°14' W 002°51'5 5.2
2014-Oct-27 06:33N 47°17' W 002°57'10 8.1
2014-Oct-27 05:22N 47°25' W 003°06'7 9.0
2014-Oct-27 04:33N 47°31' W 003°12'9 8.8
2014-Oct-27 03:33N 47°38' W 003°21'6 6.3
2014-Oct-27 02:33N 47°44' W 003°22'0 0.0
2014-Oct-27 01:33N 47°44' W 003°22'0 0.0
2014-Oct-27 00:33N 47°44' W 003°22'5 4.6
2014-Oct-26 23:33N 47°39' W 003°22'9 8.8
2014-Oct-26 22:33N 47°32' W 003°14'  
2014-Oct-24 11:34N 47°31' W 003°12'8 8.1
2014-Oct-24 10:33N 47°38' W 003°19'6 6.3
2014-Oct-24 09:33N 47°44' W 003°22'0 0.1
2014-Oct-24 08:33N 47°44' W 003°22'0 0.0
2014-Oct-24 07:33N 47°44' W 003°22'  
2014-Oct-20 21:08N 47°44' W 003°22'0 0.0
2014-Oct-20 20:33N 47°44' W 003°22'2 2.3
2014-Oct-20 19:33N 47°42' W 003°23'18 9.2
2014-Oct-20 17:33N 47°39' W 003°50'9 8.8
2014-Oct-20 16:33N 47°39' W 004°03'  

Dump ship's entire track history